createdAt,value
2023-04-15T00:01:19.121Z,56.89
2023-04-15T00:03:46.397Z,57.11
2023-04-15T00:06:13.730Z,56.92
2023-04-15T00:08:40.521Z,56.80
2023-04-15T00:11:07.405Z,56.80
2023-04-15T00:13:34.878Z,56.81
2023-04-15T00:16:02.490Z,57.48
2023-04-15T00:18:29.933Z,56.80
2023-04-15T00:20:56.835Z,56.40
2023-04-15T00:23:23.717Z,55.53
2023-04-15T00:25:51.106Z,55.50
2023-04-15T00:28:18.284Z,55.51
2023-04-15T00:30:45.791Z,56.18
2023-04-15T00:33:14.074Z,54.90
2023-04-15T00:35:40.971Z,55.38
2023-04-15T00:38:08.608Z,55.65
2023-04-15T00:40:35.690Z,56.25
2023-04-15T00:43:02.598Z,55.52
2023-04-15T00:45:30.183Z,55.87
2023-04-15T00:47:57.104Z,54.92
2023-04-15T00:50:24.125Z,54.82
2023-04-15T00:52:50.939Z,54.85
2023-04-15T00:55:17.873Z,55.24
2023-04-15T00:57:44.809Z,55.16
2023-04-15T01:00:12.155Z,54.47
2023-04-15T01:02:39.501Z,55.06
2023-04-15T01:05:07.661Z,54.63
2023-04-15T01:07:34.495Z,55.04
2023-04-15T01:10:03.712Z,54.14
2023-04-15T01:12:33.099Z,55.21
2023-04-15T01:15:00.400Z,55.30
2023-04-15T01:17:27.745Z,55.26
2023-04-15T01:19:57.857Z,54.80
2023-04-15T01:22:26.724Z,55.27
2023-04-15T01:25:11.560Z,55.11
2023-04-15T01:27:41.363Z,55.21
2023-04-15T01:30:09.561Z,55.12
2023-04-15T01:32:37.006Z,54.89
2023-04-15T01:35:03.982Z,55.10
2023-04-15T01:37:31.363Z,54.82
2023-04-15T01:39:58.177Z,55.26
2023-04-15T01:42:24.995Z,55.08
2023-04-15T01:44:52.029Z,55.53
2023-04-15T01:47:18.909Z,55.05
2023-04-15T01:49:46.109Z,55.18
2023-04-15T01:52:13.081Z,55.12
2023-04-15T01:54:40.982Z,55.28
2023-04-15T01:57:07.737Z,54.97
2023-04-15T01:59:34.831Z,54.81
2023-04-15T02:02:01.797Z,55.08
2023-04-15T02:04:28.873Z,55.07
2023-04-15T02:06:59.894Z,55.00
2023-04-15T02:09:26.780Z,55.34
2023-04-15T02:11:56.631Z,55.64
2023-04-15T02:14:24.131Z,55.36
2023-04-15T02:16:51.128Z,55.66
2023-04-15T02:19:18.247Z,55.66
2023-04-15T02:21:45.203Z,55.96
2023-04-15T02:24:12.290Z,56.00
2023-04-15T02:26:41.490Z,55.48
2023-04-15T02:29:08.395Z,54.87
2023-04-15T02:31:40.369Z,55.17
2023-04-15T02:34:07.420Z,55.10
2023-04-15T02:36:34.682Z,55.79
2023-04-15T02:39:01.927Z,56.28
2023-04-15T02:41:30.049Z,55.30
2023-04-15T02:43:57.360Z,55.24
2023-04-15T02:46:24.486Z,56.12
2023-04-15T02:48:51.296Z,56.13
2023-04-15T02:51:22.849Z,56.36
2023-04-15T02:53:50.263Z,55.60
2023-04-15T02:56:17.421Z,55.88
2023-04-15T02:58:45.709Z,56.04
2023-04-15T03:01:12.709Z,55.91
2023-04-15T03:03:41.018Z,55.77
2023-04-15T03:06:09.042Z,56.08
2023-04-15T03:08:36.493Z,55.42
2023-04-15T03:11:03.911Z,55.52
2023-04-15T03:13:31.903Z,55.72
2023-04-15T03:16:02.707Z,56.57
2023-04-15T03:18:31.388Z,56.07
2023-04-15T03:21:02.096Z,55.83
2023-04-15T03:23:31.589Z,56.30
2023-04-15T03:25:59.893Z,56.19
2023-04-15T03:28:29.559Z,55.81
2023-04-15T03:30:57.004Z,56.25
2023-04-15T03:33:23.883Z,55.64
2023-04-15T03:35:52.048Z,56.63
2023-04-15T03:38:19.041Z,55.73
2023-04-15T03:40:47.071Z,55.92
2023-04-15T03:43:13.872Z,56.04
2023-04-15T03:45:40.643Z,56.87
2023-04-15T03:48:17.107Z,56.15
2023-04-15T03:50:44.413Z,56.41
2023-04-15T03:53:11.167Z,56.09
2023-04-15T03:55:38.194Z,56.22
2023-04-15T03:58:04.988Z,55.96
2023-04-15T04:00:32.005Z,56.24
2023-04-15T04:02:59.122Z,56.40
2023-04-15T04:05:26.334Z,56.81
2023-04-15T04:07:53.089Z,56.54
2023-04-15T04:10:19.918Z,55.99
2023-04-15T04:12:46.766Z,56.02
2023-04-15T04:15:13.532Z,56.33
2023-04-15T04:17:40.794Z,55.99
2023-04-15T04:20:08.278Z,56.82
2023-04-15T04:22:40.004Z,56.35
2023-04-15T04:25:08.620Z,56.58
2023-04-15T04:27:35.630Z,56.70
2023-04-15T04:30:02.400Z,56.68
2023-04-15T04:32:29.307Z,57.03
2023-04-15T04:34:56.534Z,57.13
2023-04-15T04:37:23.692Z,56.50
2023-04-15T04:39:50.740Z,56.76
2023-04-15T04:42:17.530Z,57.12
2023-04-15T04:44:44.368Z,56.80
2023-04-15T04:47:11.508Z,57.08
2023-04-15T04:49:38.393Z,56.09
2023-04-15T04:52:05.283Z,55.89
2023-04-15T04:54:32.038Z,56.08
2023-04-15T04:56:59.017Z,56.55
2023-04-15T04:59:25.803Z,56.69
2023-04-15T05:01:53.121Z,55.35
2023-04-15T05:04:19.958Z,55.49
2023-04-15T05:06:46.727Z,56.19
2023-04-15T05:09:13.674Z,56.43
2023-04-15T05:11:40.505Z,55.35
2023-04-15T05:14:07.576Z,55.72
2023-04-15T05:16:34.366Z,55.57
2023-04-15T05:19:01.372Z,56.55
2023-04-15T05:21:28.366Z,55.10
2023-04-15T05:23:55.260Z,55.22
2023-04-15T05:26:22.161Z,55.75
2023-04-15T05:28:49.687Z,54.42
2023-04-15T05:31:16.787Z,54.65
2023-04-15T05:33:43.810Z,54.31
2023-04-15T05:36:10.721Z,55.51
2023-04-15T05:38:37.579Z,54.71
2023-04-15T05:41:04.540Z,54.19
2023-04-15T05:43:31.632Z,53.69
2023-04-15T05:45:58.521Z,53.68
2023-04-15T05:48:25.319Z,53.38
2023-04-15T05:50:52.094Z,52.81
2023-04-15T05:53:19.223Z,52.92
2023-04-15T05:55:46.080Z,52.75
2023-04-15T05:58:13.042Z,52.98
2023-04-15T06:00:40.464Z,51.54
2023-04-15T06:03:07.846Z,51.88
2023-04-15T06:05:34.757Z,51.84
2023-04-15T06:08:01.996Z,52.41
2023-04-15T06:10:29.008Z,50.74
2023-04-15T06:12:55.706Z,51.73
2023-04-15T06:15:22.977Z,51.42
2023-04-15T06:17:49.786Z,50.89
2023-04-15T06:20:16.692Z,50.60
2023-04-15T06:22:43.570Z,51.39
2023-04-15T06:25:11.016Z,51.09
2023-04-15T06:27:37.926Z,49.78
2023-04-15T06:30:05.621Z,50.80
2023-04-15T06:32:32.921Z,50.14
2023-04-15T06:34:59.845Z,48.57
2023-04-15T06:37:26.658Z,48.47
2023-04-15T06:39:53.428Z,49.49
2023-04-15T06:42:20.300Z,49.66
2023-04-15T06:44:48.625Z,49.84
2023-04-15T06:47:15.400Z,49.59
2023-04-15T06:49:43.188Z,48.85
2023-04-15T06:52:11.071Z,48.55
2023-04-15T06:54:37.905Z,47.75
2023-04-15T06:57:04.795Z,48.69
2023-04-15T06:59:34.391Z,49.90
2023-04-15T07:02:01.605Z,48.25
2023-04-15T07:04:28.343Z,48.27
2023-04-15T07:06:57.803Z,48.79
2023-04-15T07:09:24.850Z,47.77
2023-04-15T07:11:51.703Z,49.08
2023-04-15T07:14:18.688Z,47.64
2023-04-15T07:16:45.626Z,48.28
2023-04-15T07:19:12.382Z,47.93
2023-04-15T07:21:41.693Z,46.68
2023-04-15T07:24:10.500Z,47.12
2023-04-15T07:26:37.238Z,47.64
2023-04-15T07:29:04.309Z,46.62
2023-04-15T07:31:31.395Z,46.98
2023-04-15T07:33:58.654Z,45.52
2023-04-15T07:36:25.601Z,46.28
2023-04-15T07:38:52.799Z,47.46
2023-04-15T07:41:20.482Z,46.92
2023-04-15T07:43:48.733Z,46.06
2023-04-15T07:46:16.200Z,45.11
2023-04-15T07:48:43.286Z,46.15
2023-04-15T07:51:10.887Z,45.79
2023-04-15T07:53:38.145Z,44.53
2023-04-15T07:56:05.665Z,45.21
2023-04-15T07:58:32.426Z,45.77
2023-04-15T08:00:59.140Z,45.67
2023-04-15T08:03:26.257Z,45.83
2023-04-15T08:05:53.229Z,44.10
2023-04-15T08:08:19.977Z,44.48
2023-04-15T08:10:46.752Z,45.04
2023-04-15T08:13:13.751Z,43.35
2023-04-15T08:15:40.926Z,42.20
2023-04-15T08:18:08.091Z,42.40
2023-04-15T08:20:35.149Z,43.64
2023-04-15T08:23:02.001Z,42.24
2023-04-15T08:25:29.359Z,42.56
2023-04-15T08:27:57.983Z,42.29
2023-04-15T08:30:25.231Z,40.50
2023-04-15T08:32:52.319Z,41.18
2023-04-15T08:35:19.124Z,41.24
2023-04-15T08:37:46.067Z,40.42
2023-04-15T08:40:13.603Z,41.58
2023-04-15T08:42:51.669Z,41.77
2023-04-15T08:45:19.077Z,42.83
2023-04-15T08:47:47.419Z,41.45
2023-04-15T08:50:15.289Z,41.47
2023-04-15T08:52:42.268Z,42.60
2023-04-15T08:55:10.621Z,42.39
2023-04-15T08:57:38.229Z,43.23
2023-04-15T09:00:06.659Z,42.17
2023-04-15T09:02:33.843Z,44.79
2023-04-15T09:05:00.925Z,44.24
2023-04-15T09:07:27.785Z,43.41
2023-04-15T09:09:54.611Z,44.13
2023-04-15T09:12:21.883Z,43.68
2023-04-15T09:14:49.465Z,42.99
2023-04-15T09:17:21.118Z,42.39
2023-04-15T09:19:48.101Z,43.84
2023-04-15T09:22:15.393Z,43.07
2023-04-15T09:24:43.392Z,43.14
2023-04-15T09:27:11.291Z,43.51
2023-04-15T09:29:38.194Z,43.61
2023-04-15T09:32:15.642Z,42.76
2023-04-15T09:34:42.860Z,43.29
2023-04-15T09:37:10.986Z,43.32
2023-04-15T09:39:51.967Z,45.14
2023-04-15T09:42:28.884Z,43.45
2023-04-15T09:44:55.991Z,42.96
2023-04-15T09:47:30.507Z,43.25
2023-04-15T09:50:01.667Z,43.61
2023-04-15T09:52:29.424Z,42.81
2023-04-15T09:55:00.237Z,44.15
2023-04-15T09:57:35.548Z,44.75
2023-04-15T10:00:08.293Z,43.70
2023-04-15T10:02:36.992Z,44.03
2023-04-15T10:05:04.674Z,43.66
2023-04-15T10:07:32.654Z,44.75
2023-04-15T10:10:00.215Z,44.58
2023-04-15T10:12:28.562Z,44.03
2023-04-15T10:15:05.290Z,45.29
2023-04-15T10:17:35.468Z,44.86
2023-04-15T10:20:04.935Z,45.25
2023-04-15T10:22:33.031Z,44.58
2023-04-15T10:25:01.171Z,44.16
2023-04-15T10:27:28.840Z,44.04
2023-04-15T10:29:56.922Z,44.28
2023-04-15T10:32:26.435Z,44.46
2023-04-15T10:34:54.789Z,44.54
2023-04-15T10:37:23.202Z,44.23
2023-04-15T10:39:50.757Z,43.23
2023-04-15T10:43:54.214Z,43.16
2023-04-15T10:46:37.839Z,42.43
2023-04-15T10:49:16.456Z,43.77
2023-04-15T10:51:46.215Z,43.56
2023-04-15T10:54:31.074Z,41.25
2023-04-15T10:57:01.548Z,41.70
2023-04-15T10:59:38.404Z,41.44
2023-04-15T11:02:07.331Z,40.76
2023-04-15T11:04:54.068Z,41.97
2023-04-15T11:07:39.508Z,41.45
2023-04-15T11:10:21.362Z,41.01
2023-04-15T11:12:51.509Z,40.75
2023-04-15T11:15:30.555Z,39.93
2023-04-15T11:17:58.383Z,41.09
2023-04-15T11:20:26.200Z,41.18
2023-04-15T11:23:14.359Z,40.99
2023-04-15T11:25:43.513Z,38.90
2023-04-15T11:28:11.391Z,40.31
2023-04-15T11:30:39.395Z,41.25
2023-04-15T11:33:08.670Z,42.52
2023-04-15T11:35:36.318Z,40.08
2023-04-15T11:38:08.823Z,39.65
2023-04-15T11:40:36.236Z,39.41
2023-04-15T11:43:13.802Z,37.89
2023-04-15T11:46:01.522Z,38.74
2023-04-15T11:48:36.718Z,38.37
2023-04-15T11:51:05.594Z,39.26
2023-04-15T11:53:44.083Z,38.18
2023-04-15T11:56:21.036Z,36.15
2023-04-15T11:58:50.634Z,37.76
2023-04-15T12:01:17.797Z,37.06
2023-04-15T12:03:49.582Z,37.88
2023-04-15T12:06:24.894Z,37.83
2023-04-15T12:09:03.563Z,37.40
2023-04-15T12:11:57.352Z,37.76
2023-04-15T12:14:28.270Z,37.64
2023-04-15T12:17:00.469Z,38.13
2023-04-15T12:19:48.560Z,37.59
2023-04-15T12:22:16.991Z,38.36
2023-04-15T12:24:48.165Z,38.85
2023-04-15T12:27:16.896Z,38.15
2023-04-15T12:29:44.277Z,39.23
2023-04-15T12:32:15.394Z,40.09
2023-04-15T12:34:50.865Z,38.77
2023-04-15T12:37:17.951Z,37.61
2023-04-15T12:39:48.755Z,38.61
2023-04-15T12:42:17.459Z,39.77
2023-04-15T12:44:44.335Z,40.05
2023-04-15T12:47:12.274Z,40.17
2023-04-15T12:49:39.743Z,39.49
2023-04-15T12:52:06.945Z,40.06
2023-04-15T12:54:34.540Z,40.64
2023-04-15T12:57:02.189Z,40.42
2023-04-15T12:59:30.338Z,39.74
2023-04-15T13:01:57.423Z,39.45
2023-04-15T13:04:24.662Z,40.63
2023-04-15T13:06:51.856Z,39.86
2023-04-15T13:09:18.671Z,38.79
2023-04-15T13:11:45.462Z,39.52
2023-04-15T13:14:13.198Z,39.80
2023-04-15T13:16:40.492Z,38.91
2023-04-15T13:19:07.562Z,38.29
2023-04-15T13:21:35.984Z,39.44
2023-04-15T13:24:04.257Z,39.96
2023-04-15T13:26:31.908Z,39.51
2023-04-15T13:28:59.891Z,39.37
2023-04-15T13:31:27.294Z,40.51
2023-04-15T13:33:54.479Z,39.88
2023-04-15T13:36:21.560Z,39.79
2023-04-15T13:38:51.005Z,39.73
2023-04-15T13:41:18.868Z,38.52
2023-04-15T13:43:46.399Z,39.36
2023-04-15T13:46:13.504Z,38.43
2023-04-15T13:48:40.673Z,38.89
2023-04-15T13:51:07.577Z,38.63
2023-04-15T13:53:38.771Z,38.60
2023-04-15T13:56:08.522Z,40.07
2023-04-15T13:58:37.001Z,40.16
2023-04-15T14:01:05.739Z,40.14
2023-04-15T14:03:35.059Z,39.58
2023-04-15T14:06:02.316Z,39.58
2023-04-15T14:08:30.309Z,40.35
2023-04-15T14:10:57.902Z,39.82
2023-04-15T14:13:25.330Z,40.17
2023-04-15T14:15:52.350Z,40.14
2023-04-15T14:18:19.292Z,40.68
2023-04-15T14:20:46.544Z,39.42
2023-04-15T14:23:13.523Z,40.54
2023-04-15T14:25:40.468Z,40.12
2023-04-15T14:28:07.417Z,40.14
2023-04-15T14:30:34.333Z,40.68
2023-04-15T14:33:01.554Z,40.41
2023-04-15T14:35:28.735Z,40.54
2023-04-15T14:37:55.846Z,40.32
2023-04-15T14:40:23.197Z,41.49
2023-04-15T14:42:50.269Z,41.80
2023-04-15T14:45:18.514Z,41.40
2023-04-15T14:47:45.486Z,41.28
2023-04-15T14:50:12.531Z,41.86
2023-04-15T14:52:39.697Z,41.79
2023-04-15T14:55:08.344Z,41.41
2023-04-15T14:57:35.298Z,41.65
2023-04-15T15:00:03.663Z,42.25
2023-04-15T15:02:39.387Z,41.57
2023-04-15T15:05:08.756Z,41.87
2023-04-15T15:07:37.389Z,42.28
2023-04-15T15:10:06.235Z,42.90
2023-04-15T15:12:33.845Z,42.75
2023-04-15T15:15:03.087Z,43.30
2023-04-15T15:17:35.668Z,43.31
2023-04-15T15:20:03.636Z,44.03
2023-04-15T15:22:30.605Z,44.08
2023-04-15T15:24:59.327Z,44.24
2023-04-15T15:27:26.693Z,44.90
2023-04-15T15:29:53.657Z,45.64
2023-04-15T15:32:20.816Z,44.35
2023-04-15T15:34:47.803Z,45.30
2023-04-15T15:37:14.769Z,45.46
2023-04-15T15:39:41.708Z,44.88
2023-04-15T15:42:08.964Z,44.95
2023-04-15T15:44:38.458Z,45.32
2023-04-15T15:47:06.076Z,45.33
2023-04-15T15:49:33.211Z,45.13
2023-04-15T15:52:00.900Z,45.58
2023-04-15T15:54:27.828Z,46.03
2023-04-15T15:56:54.878Z,46.77
2023-04-15T15:59:21.891Z,46.44
2023-04-15T16:01:49.376Z,46.58
2023-04-15T16:04:16.670Z,46.95
2023-04-15T16:06:45.006Z,46.30
2023-04-15T16:09:11.911Z,46.14
2023-04-15T16:11:39.389Z,46.23
2023-04-15T16:14:07.557Z,46.48
2023-04-15T16:16:34.626Z,47.16
2023-04-15T16:19:01.764Z,46.64
2023-04-15T16:21:28.788Z,46.80
2023-04-15T16:23:56.210Z,46.61
2023-04-15T16:26:23.670Z,46.87
2023-04-15T16:28:50.667Z,46.49
2023-04-15T16:31:17.654Z,47.14
2023-04-15T16:33:44.612Z,46.48
2023-04-15T16:36:11.544Z,46.12
2023-04-15T16:38:38.419Z,46.62
2023-04-15T16:41:05.486Z,46.05
2023-04-15T16:43:32.386Z,46.49
2023-04-15T16:45:59.338Z,47.19
2023-04-15T16:48:26.651Z,47.15
2023-04-15T16:50:53.599Z,47.37
2023-04-15T16:53:20.701Z,47.51
2023-04-15T16:55:47.665Z,47.45
2023-04-15T16:58:14.657Z,47.33
2023-04-15T17:00:41.638Z,47.78
2023-04-15T17:03:08.907Z,47.13
2023-04-15T17:05:35.911Z,47.42
2023-04-15T17:08:03.105Z,47.26
2023-04-15T17:10:31.098Z,47.93
2023-04-15T17:12:59.886Z,48.55
2023-04-15T17:15:27.348Z,48.41
2023-04-15T17:17:54.926Z,48.33
2023-04-15T17:20:22.113Z,50.35
2023-04-15T17:22:49.203Z,48.22
2023-04-15T17:25:16.269Z,47.56
2023-04-15T17:27:43.414Z,48.01
2023-04-15T17:30:10.768Z,48.67
2023-04-15T17:32:39.476Z,49.45
2023-04-15T17:35:07.055Z,48.85
2023-04-15T17:37:34.518Z,48.18
2023-04-15T17:40:01.668Z,48.92
2023-04-15T17:42:28.753Z,48.88
2023-04-15T17:44:55.632Z,49.30
2023-04-15T17:47:22.658Z,49.76
2023-04-15T17:49:49.553Z,48.70
2023-04-15T17:52:16.465Z,47.87
2023-04-15T17:54:43.422Z,48.89
2023-04-15T17:57:10.743Z,48.61
2023-04-15T17:59:37.991Z,48.75
2023-04-15T18:02:05.187Z,49.91
2023-04-15T18:04:32.370Z,49.17
2023-04-15T18:06:59.375Z,49.78
2023-04-15T18:09:27.373Z,49.72
2023-04-15T18:11:54.293Z,48.83
2023-04-15T18:14:33.408Z,49.61
2023-04-15T18:17:05.170Z,50.20
2023-04-15T18:19:32.404Z,49.40
2023-04-15T18:22:03.312Z,49.31
2023-04-15T18:24:30.391Z,49.62
2023-04-15T18:26:57.557Z,48.79
2023-04-15T18:29:25.393Z,49.22
2023-04-15T18:31:52.781Z,49.31
2023-04-15T18:34:19.756Z,48.69
2023-04-15T18:36:46.768Z,48.30
2023-04-15T18:39:13.840Z,49.16
2023-04-15T18:41:40.783Z,48.01
2023-04-15T18:44:07.720Z,48.36
2023-04-15T18:46:34.747Z,48.28
2023-04-15T18:49:01.719Z,48.26
2023-04-15T18:51:28.720Z,48.28
2023-04-15T18:53:55.747Z,48.09
2023-04-15T18:56:22.674Z,48.29
2023-04-15T18:59:26.917Z,47.51
2023-04-15T19:01:36.846Z,48.19
2023-04-15T19:04:03.907Z,47.97
2023-04-15T19:06:30.957Z,47.51
2023-04-15T19:08:58.756Z,47.85
2023-04-15T19:11:26.296Z,47.60
2023-04-15T19:13:53.313Z,47.89
2023-04-15T19:16:21.069Z,48.16
2023-04-15T19:18:48.103Z,48.34
2023-04-15T19:21:15.813Z,48.00
2023-04-15T19:23:43.245Z,48.71
2023-04-15T19:26:11.599Z,49.29
2023-04-15T19:28:38.534Z,49.57
2023-04-15T19:31:05.755Z,49.45
2023-04-15T19:33:32.783Z,50.36
2023-04-15T19:36:04.592Z,50.71
2023-04-15T19:38:32.460Z,50.49
2023-04-15T19:40:59.541Z,50.96
2023-04-15T19:43:26.475Z,51.14
2023-04-15T19:45:54.873Z,50.65
2023-04-15T19:48:23.020Z,50.93
2023-04-15T19:50:50.183Z,52.21
2023-04-15T19:53:17.484Z,51.42
2023-04-15T19:55:44.520Z,51.84
2023-04-15T19:58:11.596Z,51.43
2023-04-15T20:00:38.690Z,50.88
2023-04-15T20:03:05.938Z,50.50
2023-04-15T20:05:33.036Z,50.35
2023-04-15T20:08:01.604Z,50.96
2023-04-15T20:10:29.813Z,50.58
2023-04-15T20:12:56.855Z,51.28
2023-04-15T20:15:24.316Z,50.58
2023-04-15T20:17:51.562Z,51.92
2023-04-15T20:20:18.780Z,51.10
2023-04-15T20:22:45.780Z,50.54
2023-04-15T20:25:12.817Z,50.60
2023-04-15T20:27:40.064Z,51.38
2023-04-15T20:30:07.750Z,51.31
2023-04-15T20:32:38.760Z,50.87
2023-04-15T20:35:06.972Z,50.42
2023-04-15T20:37:34.449Z,50.48
2023-04-15T20:40:02.248Z,50.69
2023-04-15T20:42:36.588Z,51.23
2023-04-15T20:45:04.001Z,51.04
2023-04-15T20:47:31.265Z,51.38
2023-04-15T20:49:58.225Z,50.50
2023-04-15T20:52:25.204Z,50.78
2023-04-15T20:54:52.171Z,51.34
2023-04-15T20:57:20.322Z,50.71
2023-04-15T20:59:47.570Z,52.78
2023-04-15T21:02:14.661Z,53.36
2023-04-15T21:04:41.705Z,53.71
2023-04-15T21:07:09.909Z,56.00
2023-04-15T21:09:38.490Z,56.08
2023-04-15T21:12:05.517Z,56.48
2023-04-15T21:14:32.613Z,58.89
2023-04-15T21:16:59.732Z,59.24
2023-04-15T21:19:26.838Z,59.90
2023-04-15T21:21:53.839Z,60.13
2023-04-15T21:24:20.794Z,62.17
2023-04-15T21:26:47.750Z,61.68
2023-04-15T21:29:14.815Z,63.56
2023-04-15T21:31:42.208Z,62.65
2023-04-15T21:34:09.905Z,64.11
2023-04-15T21:36:38.306Z,63.94
2023-04-15T21:39:06.146Z,65.11
2023-04-15T21:41:33.224Z,66.17
2023-04-15T21:44:00.385Z,66.05
2023-04-15T21:46:32.779Z,67.15
2023-04-15T21:49:00.410Z,68.15
2023-04-15T21:51:27.742Z,69.31
2023-04-15T21:53:54.651Z,69.78
2023-04-15T21:56:23.214Z,68.80
2023-04-15T21:58:50.567Z,69.08
2023-04-15T22:01:17.562Z,69.27
2023-04-15T22:03:44.907Z,69.32
2023-04-15T22:06:13.634Z,70.67
2023-04-15T22:08:54.905Z,71.15
2023-04-15T22:11:26.639Z,70.60
2023-04-15T22:13:54.553Z,70.86
2023-04-15T22:16:21.532Z,70.68
2023-04-15T22:18:48.680Z,71.53
2023-04-15T22:21:15.456Z,71.10
2023-04-15T22:23:42.160Z,71.71
2023-04-15T22:26:09.011Z,71.72
2023-04-15T22:28:35.861Z,71.15
2023-04-15T22:31:02.780Z,71.47
2023-04-15T22:33:29.813Z,71.42
2023-04-15T22:35:56.881Z,71.68
2023-04-15T22:38:24.552Z,70.97
2023-04-15T22:40:53.891Z,71.62
2023-04-15T22:43:20.908Z,71.62
2023-04-15T22:45:51.480Z,71.21
2023-04-15T22:48:21.500Z,70.99
2023-04-15T22:50:48.691Z,71.18
2023-04-15T22:53:16.513Z,71.63
2023-04-15T22:55:49.336Z,71.43
2023-04-15T22:58:17.214Z,72.03
2023-04-15T23:00:44.755Z,71.41
2023-04-15T23:03:11.798Z,72.08
2023-04-15T23:05:41.090Z,71.84
2023-04-15T23:08:08.315Z,72.46
2023-04-15T23:10:35.498Z,72.10
2023-04-15T23:13:02.310Z,72.66
2023-04-15T23:15:29.241Z,72.58
2023-04-15T23:17:56.166Z,72.51
2023-04-15T23:20:23.094Z,72.62
2023-04-15T23:22:50.331Z,73.31
2023-04-15T23:25:17.264Z,72.60
2023-04-15T23:27:44.050Z,73.22
2023-04-15T23:30:10.983Z,73.92
2023-04-15T23:32:37.850Z,74.49
2023-04-15T23:35:05.049Z,75.29
2023-04-15T23:37:31.836Z,74.80
2023-04-15T23:39:58.654Z,74.74
2023-04-15T23:42:26.043Z,75.00
2023-04-15T23:44:53.141Z,74.97
2023-04-15T23:47:20.027Z,75.26
2023-04-15T23:49:46.963Z,75.28
2023-04-15T23:52:13.972Z,75.39
2023-04-15T23:54:40.806Z,74.86
2023-04-15T23:57:07.618Z,75.30
2023-04-15T23:59:34.387Z,75.74
